Ringling, OK

3:38 PM CDT on September 22, 2014 (GMT -0500)
Bowie | Change Station
CLOSE
Current Station
Airport
Location: Bowie,
Elevation: 1102 ft
Nearby Weather Stations

Elev 1102 ft 33.60 °N, 97.77 °W | Updated 23 minutes ago

Clear
Clear
84 °F
Feels Like 84 °F
N
0
Wind Variable Wind from North

Today
High -- | Low -- °F
--% Chance of Precip.
Yesterday
High -- | Low -- °F
Precip. -- in
7:18 AM 7:27 PM
Waning Crescent, 2% visible
Pressure 30.17 in
Visibility 10.0 miles
Clouds Clear
Dew Point 48 °F
Humidity 28%
Rainfall 0.00 in
Snow Depth Not available.
UV 7 out of 12
Pollen 10.50 out of 12
Air Quality Not available.
Flu Activity Not available.
METAR K0F2 222015Z AUTO 00000KT 10SM CLR 29/09 A3017 RMK AO2 T02880088

More Conditions Fewer Conditions

Pressure 30.17 in
Visibility 10.0 miles
Clouds Clear
Dew Point 48 °F
Humidity 28%
Rainfall 0.00 in
Snow Depth Not available.
UV 7 out of 12
Pollen 10.50 out of 12
Air Quality Not available.
Flu Activity Not available.
METAR K0F2 222015Z AUTO 00000KT 10SM CLR 29/09 A3017 RMK AO2 T02880088

More Conditions Fewer Conditions

10-Day Weather Forecast

Almanac

Astronomy

Sep. 22, 2014 Rise Set
Actual Time 7:18 AM CDT 7:27 PM CDT
Civil Twilight 6:53 AM CDT 7:52 PM CDT
Nautical Twilight 6:24 AM CDT 8:21 PM CDT
Astronomical Twilight 5:54 AM CDT 8:50 PM CDT
Moon 5:51 AM CDT 6:33 PM CDT
Length of Visible Light 12h 58m
Length of Day
12h 08m
Tomorrow will be 2m 7s shorter.
Waning Crescent, 2% of the Moon is Illuminated
Today
Waning Crescent
Sep 24
New
Oct 1
First Quarter
Oct 8
Full
Oct 15
Last Quarter

Today's Extremes

State Highs State Lows

Community

WunderPhotos

Upload Photos

1,755,522 photos uploaded!

WunderBlogs® & News

Nearby

Snow Depth

Station Depth Elevation
No new snow has been reported.

Earthquake Activity

City Distance Mag. Time & Date
Bray, Oklahoma 28 miles 3.6 2:28 PM CDT
2014-09-22
Luther, Oklahoma 106 miles 2.7 4:47 PM CDT
2014-09-19
Guthrie, Oklahoma 113 miles 3.6 12:23 PM CDT
2014-09-19
Jones, Oklahoma 97 miles 2.8 1:13 AM CDT
2014-09-19
Minimum magnitude displayed is 2.5.

Coastal Water Temperatures

Place Temperature
No Stations Reporting

Nearby Weather Stations